Time;durP1;ratioP1;P1;durP2;ratioP2;P2;SDS_P1;SDS_P2;PMS_P1;PMS_P2;Temp;Humidity;BMP_temperature;BMP_pressure;BME280_temperature;BME280_humidity;BME280_pressure;Samples;Min_cycle;Max_cycle;Signal;HPM_P1;HPM_P2
2022/03/05 00:00:32;;;;;;;7.05;4.47;;;1.10;99.90;;;;;;5028501;28;20064;-75
2022/03/05 00:02:59;;;;;;;6.43;3.92;;;1.20;99.90;;;;;;5026437;28;20047;-76
2022/03/05 00:05:25;;;;;;;7.40;4.72;;;1.20;99.90;;;;;;5027779;28;20052;-75
2022/03/05 00:07:51;;;;;;;8.45;5.07;;;1.20;99.90;;;;;;5047213;28;20045;-75
2022/03/05 00:10:19;;;;;;;7.40;4.97;;;1.10;99.90;;;;;;5030106;28;20526;-75
2022/03/05 00:12:48;;;;;;;8.57;4.97;;;1.10;99.90;;;;;;5030227;28;20045;-75
2022/03/05 00:15:14;;;;;;;8.00;4.90;;;1.10;99.90;;;;;;5016168;28;20445;-75
2022/03/05 00:17:40;;;;;;;6.95;4.93;;;1.00;99.90;;;;;;5006681;28;20046;-75
2022/03/05 00:20:06;;;;;;;13.23;5.63;;;1.00;99.90;;;;;;5024181;28;20136;-74
2022/03/05 00:22:32;;;;;;;8.35;4.88;;;1.00;99.90;;;;;;5019018;28;20056;-75
2022/03/05 00:24:58;;;;;;;7.95;4.97;;;1.00;99.90;;;;;;5030766;28;20127;-75
2022/03/05 00:27:24;;;;;;;7.85;5.47;;;1.00;99.90;;;;;;5026723;28;20453;-75
2022/03/05 00:29:50;;;;;;;11.65;5.55;;;1.00;99.90;;;;;;5024928;28;20041;-75
2022/03/05 00:32:16;;;;;;;9.13;4.93;;;1.00;99.90;;;;;;5017325;28;20036;-75
2022/03/05 00:34:42;;;;;;;7.00;4.90;;;1.00;99.90;;;;;;5012095;28;20445;-75
2022/03/05 00:37:08;;;;;;;8.65;5.32;;;1.00;99.90;;;;;;5023259;28;20137;-75
2022/03/05 00:39:35;;;;;;;11.95;4.80;;;0.90;99.90;;;;;;5023736;28;20049;-76
2022/03/05 00:42:00;;;;;;;12.18;5.82;;;0.90;99.90;;;;;;5049844;28;20546;-76
2022/03/05 00:44:28;;;;;;;7.75;5.47;;;0.90;99.90;;;;;;5053776;28;20120;-75
2022/03/05 00:46:54;;;;;;;5.85;4.20;;;0.90;99.90;;;;;;5030616;28;20121;-76
2022/03/05 00:49:20;;;;;;;5.57;4.53;;;1.00;99.90;;;;;;5001312;28;20049;-75
2022/03/05 00:51:46;;;;;;;7.43;5.40;;;0.90;99.90;;;;;;5028116;28;20043;-75
2022/03/05 00:54:12;;;;;;;7.47;4.95;;;0.90;99.90;;;;;;5031456;28;20053;-75
2022/03/05 00:56:38;;;;;;;7.57;4.40;;;0.90;99.90;;;;;;5040318;28;20496;-75
2022/03/05 00:59:03;;;;;;;7.32;4.88;;;0.90;99.90;;;;;;5044103;28;20483;-76
2022/03/05 01:01:29;;;;;;;7.85;4.65;;;0.80;99.90;;;;;;5035325;28;20049;-75
2022/03/05 01:03:55;;;;;;;7.20;4.82;;;0.80;99.90;;;;;;5048016;28;20051;-75
2022/03/05 01:06:21;;;;;;;5.57;4.57;;;0.80;99.90;;;;;;5043836;28;20084;-75
2022/03/05 01:08:46;;;;;;;7.50;4.53;;;0.80;99.90;;;;;;5044046;28;20124;-75
2022/03/05 01:11:15;;;;;;;7.63;5.00;;;0.70;99.90;;;;;;5060694;28;20091;-75
2022/03/05 01:13:43;;;;;;;8.55;4.63;;;0.70;99.90;;;;;;5029445;28;20055;-75
2022/03/05 01:16:09;;;;;;;8.80;4.60;;;0.70;99.90;;;;;;5044709;28;20442;-75
2022/03/05 01:18:34;;;;;;;7.93;5.18;;;0.60;99.90;;;;;;5047760;28;20541;-75
2022/03/05 01:21:00;;;;;;;8.40;5.03;;;0.60;99.90;;;;;;5045003;28;20045;-75
2022/03/05 01:23:26;;;;;;;10.55;5.20;;;0.50;99.90;;;;;;5046814;28;20051;-75
2022/03/05 01:25:52;;;;;;;11.55;5.53;;;0.40;99.90;;;;;;5045052;28;20045;-75
2022/03/05 01:28:17;;;;;;;7.68;4.78;;;0.30;99.90;;;;;;5024796;28;20118;-75
2022/03/05 01:30:43;;;;;;;6.18;4.60;;;0.30;99.90;;;;;;5044369;28;20059;-75
2022/03/05 01:33:15;;;;;;;7.90;4.75;;;0.20;99.90;;;;;;5044318;28;20037;-75
2022/03/05 01:35:45;;;;;;;8.55;5.10;;;0.20;99.90;;;;;;5028443;28;20049;-74
2022/03/05 01:38:12;;;;;;;13.18;4.60;;;0.10;99.90;;;;;;5045124;28;20434;-75
2022/03/05 01:40:39;;;;;;;7.65;4.88;;;0.00;99.90;;;;;;5037673;28;20044;-75
2022/03/05 01:43:05;;;;;;;6.88;4.63;;;0.10;99.90;;;;;;5021663;28;20052;-75
2022/03/05 01:45:31;;;;;;;8.15;4.50;;;-0.10;99.90;;;;;;5042699;28;20437;-75
2022/03/05 01:47:57;;;;;;;6.68;4.35;;;-0.10;99.90;;;;;;5039299;28;20521;-75
2022/03/05 01:50:24;;;;;;;5.82;4.65;;;-0.30;99.90;;;;;;5041399;28;20120;-75
2022/03/05 01:52:50;;;;;;;8.25;5.15;;;-0.30;99.90;;;;;;5018102;28;20052;-75
2022/03/05 01:55:16;;;;;;;8.40;4.40;;;-0.40;99.90;;;;;;5040094;28;20474;-75
2022/03/05 01:57:42;;;;;;;6.05;5.15;;;-0.50;99.90;;;;;;5047317;28;20545;-75
2022/03/05 02:00:10;;;;;;;6.07;4.70;;;-0.50;99.90;;;;;;5030790;28;20487;-75
2022/03/05 02:02:38;;;;;;;7.85;4.18;;;-0.50;99.90;;;;;;5031466;28;20036;-75
2022/03/05 02:05:05;;;;;;;7.53;5.05;;;-0.40;99.90;;;;;;5039217;28;20230;-75
2022/03/05 02:07:31;;;;;;;8.20;4.38;;;-0.30;99.90;;;;;;5045016;28;20119;-75
2022/03/05 02:09:57;;;;;;;8.02;5.18;;;-0.30;99.90;;;;;;5047282;28;20049;-75
2022/03/05 02:12:33;;;;;;;5.15;4.65;;;-0.30;99.90;;;;;;5043705;28;20052;-75
2022/03/05 02:15:00;;;;;;;9.23;5.40;;;-0.20;99.90;;;;;;5031891;28;20060;-75
2022/03/05 02:17:27;;;;;;;6.28;4.40;;;-0.20;99.90;;;;;;5046121;28;20041;-75
2022/03/05 02:19:54;;;;;;;9.30;4.55;;;-0.30;99.90;;;;;;5043019;28;20053;-75
2022/03/05 02:22:19;;;;;;;5.88;4.68;;;-0.30;99.90;;;;;;5050605;28;20117;-75
2022/03/05 02:24:48;;;;;;;6.60;4.65;;;-0.30;99.90;;;;;;5012231;28;20547;-75
2022/03/05 02:27:13;;;;;;;7.80;4.78;;;-0.30;99.90;;;;;;5046961;28;20415;-75
2022/03/05 02:29:39;;;;;;;6.80;4.70;;;-0.40;99.90;;;;;;5041954;28;20095;-75
2022/03/05 02:32:05;;;;;;;7.93;4.90;;;-0.40;99.90;;;;;;5035341;28;20056;-75
2022/03/05 02:34:31;;;;;;;6.88;4.28;;;-0.60;99.90;;;;;;5040272;28;20117;-75
2022/03/05 02:36:57;;;;;;;7.32;4.53;;;-0.60;99.90;;;;;;5043243;28;20132;-75
2022/03/05 02:39:26;;;;;;;10.38;5.03;;;-0.70;99.90;;;;;;5042179;28;20049;-75
2022/03/05 02:41:55;;;;;;;9.07;4.85;;;-0.70;99.90;;;;;;5028766;28;20045;-75
2022/03/05 02:44:21;;;;;;;10.20;4.80;;;-0.70;99.90;;;;;;5022902;28;20041;-75
2022/03/05 02:46:49;;;;;;;5.45;4.30;;;-0.70;99.90;;;;;;5061901;28;20072;-75
2022/03/05 02:49:15;;;;;;;9.23;4.47;;;-0.60;99.90;;;;;;5047292;28;20084;-75
2022/03/05 02:51:42;;;;;;;7.97;4.32;;;-0.60;99.90;;;;;;5044898;28;20497;-74
2022/03/05 02:54:08;;;;;;;6.78;4.32;;;-0.50;99.90;;;;;;5042744;28;20076;-75
2022/03/05 02:56:34;;;;;;;8.20;4.70;;;-0.60;99.90;;;;;;5022600;28;20475;-74
2022/03/05 02:59:00;;;;;;;10.07;4.30;;;-0.60;99.90;;;;;;5042250;28;20170;-74
2022/03/05 03:01:25;;;;;;;7.27;4.47;;;-0.60;99.90;;;;;;5022972;28;20041;-75
2022/03/05 03:03:52;;;;;;;7.60;4.55;;;-0.50;99.90;;;;;;5041692;28;20071;-75
2022/03/05 03:06:17;;;;;;;8.07;4.70;;;-0.40;99.90;;;;;;5035280;28;20072;-75
2022/03/05 03:08:43;;;;;;;8.95;4.75;;;-0.40;99.90;;;;;;5005755;28;20385;-75
2022/03/05 03:11:09;;;;;;;11.45;4.15;;;-0.40;99.90;;;;;;5026476;28;20266;-75
2022/03/05 03:13:35;;;;;;;7.35;4.25;;;-0.40;99.90;;;;;;5033929;28;20048;-75
2022/03/05 03:16:00;;;;;;;7.63;4.30;;;-0.40;99.90;;;;;;5022928;28;20034;-75
2022/03/05 03:18:26;;;;;;;12.45;4.22;;;-0.40;99.90;;;;;;4999526;28;20045;-75
2022/03/05 03:20:52;;;;;;;7.47;4.60;;;-0.40;99.90;;;;;;5021632;28;20103;-75
2022/03/05 03:23:17;;;;;;;8.35;4.95;;;-0.40;99.90;;;;;;5042892;28;20053;-75
2022/03/05 03:25:43;;;;;;;8.35;4.57;;;-0.30;99.90;;;;;;5034549;28;20133;-75
2022/03/05 03:28:09;;;;;;;5.55;4.03;;;-0.30;99.90;;;;;;5029140;28;20156;-75
2022/03/05 03:30:35;;;;;;;5.85;4.00;;;-0.30;99.90;;;;;;5041132;28;20049;-75
2022/03/05 03:33:02;;;;;;;7.85;4.63;;;-0.30;99.90;;;;;;5041648;28;20072;-75
2022/03/05 03:35:27;;;;;;;7.00;4.53;;;-0.30;99.90;;;;;;5051843;28;20037;-75
2022/03/05 03:37:54;;;;;;;6.82;4.22;;;-0.20;99.90;;;;;;5029856;28;20134;-75
2022/03/05 03:40:20;;;;;;;9.88;4.93;;;-0.20;99.90;;;;;;5054799;28;20044;-75
2022/03/05 03:42:48;;;;;;;5.25;4.22;;;-0.30;99.90;;;;;;5034451;28;20127;-75
2022/03/05 03:45:15;;;;;;;6.45;4.03;;;-0.20;99.90;;;;;;5032028;28;20037;-75
2022/03/05 03:47:43;;;;;;;6.97;4.68;;;-0.10;99.90;;;;;;5026568;28;20059;-75
2022/03/05 03:50:10;;;;;;;6.45;4.45;;;-0.20;99.90;;;;;;5042225;28;20077;-75
2022/03/05 03:52:36;;;;;;;6.75;4.60;;;-0.30;99.90;;;;;;5032288;28;20045;-75
2022/03/05 03:55:04;;;;;;;9.63;4.97;;;-0.30;99.90;;;;;;5008015;28;20063;-75
2022/03/05 03:57:30;;;;;;;6.68;4.05;;;-0.30;99.90;;;;;;5062104;28;20409;-75
2022/03/05 03:59:55;;;;;;;5.22;4.10;;;-0.30;99.90;;;;;;5027013;28;20049;-75
2022/03/05 04:02:22;;;;;;;7.82;4.68;;;-0.30;99.90;;;;;;5012479;28;20468;-76
2022/03/05 04:04:49;;;;;;;7.25;4.72;;;-0.30;99.90;;;;;;5043601;28;20414;-75
2022/03/05 04:09:59;;;;;;;5.25;3.90;;;-0.40;99.90;;;;;;5035588;28;20077;-75
2022/03/05 04:12:25;;;;;;;13.95;3.97;;;-0.30;99.90;;;;;;5038424;28;20431;-75
2022/03/05 04:14:51;;;;;;;7.43;4.05;;;-0.30;99.90;;;;;;5042842;28;20041;-75
2022/03/05 04:17:17;;;;;;;5.22;4.05;;;-0.30;99.90;;;;;;5034586;28;20503;-75
2022/03/05 04:19:44;;;;;;;9.05;4.13;;;-0.40;99.90;;;;;;5011847;28;20404;-75
2022/03/05 04:22:10;;;;;;;7.47;4.43;;;-0.40;99.90;;;;;;5032965;28;20128;-76
2022/03/05 04:24:36;;;;;;;6.20;4.47;;;-0.40;99.90;;;;;;5039919;28;20037;-75
2022/03/05 04:27:02;;;;;;;6.03;4.20;;;-0.40;99.90;;;;;;5024249;28;20057;-75
2022/03/05 04:29:27;;;;;;;8.70;4.20;;;-0.40;99.90;;;;;;5039734;28;20056;-75
2022/03/05 04:31:53;;;;;;;8.30;4.55;;;-0.40;99.90;;;;;;5025378;28;20510;-75
2022/03/05 04:34:19;;;;;;;8.50;4.18;;;-0.40;99.90;;;;;;5002112;28;20093;-75
2022/03/05 04:36:45;;;;;;;8.82;4.03;;;-0.40;99.90;;;;;;5025147;28;20050;-75
2022/03/05 04:39:11;;;;;;;6.65;4.53;;;-0.40;99.90;;;;;;5031976;28;20075;-75
2022/03/05 04:41:37;;;;;;;8.35;3.95;;;-0.40;99.90;;;;;;5029673;28;20487;-76
2022/03/05 04:44:03;;;;;;;7.72;4.68;;;-0.40;99.90;;;;;;5046645;28;20102;-75
2022/03/05 04:46:29;;;;;;;9.13;4.53;;;-0.40;99.90;;;;;;5046497;28;20041;-75
2022/03/05 04:48:55;;;;;;;7.95;4.60;;;-0.40;99.90;;;;;;5047799;28;20043;-76
2022/03/05 04:51:22;;;;;;;8.57;4.47;;;-0.30;99.90;;;;;;5047193;28;20056;-75
2022/03/05 04:53:47;;;;;;;6.28;4.40;;;-0.40;99.90;;;;;;5035559;28;20056;-76
2022/03/05 04:56:13;;;;;;;5.57;4.60;;;-0.40;99.90;;;;;;5066279;28;20046;-75
2022/03/05 04:58:39;;;;;;;9.15;4.85;;;-0.40;99.90;;;;;;5076020;28;20049;-76
2022/03/05 05:01:06;;;;;;;15.52;4.88;;;-0.40;99.90;;;;;;5053489;28;20052;-76
2022/03/05 05:03:33;;;;;;;7.78;4.40;;;-0.50;99.90;;;;;;5064758;28;20575;-75
2022/03/05 05:05:59;;;;;;;10.10;5.07;;;-0.50;99.90;;;;;;5050811;28;20083;-75
2022/03/05 05:08:24;;;;;;;9.73;5.05;;;-0.50;99.90;;;;;;5067592;28;20124;-75
2022/03/05 05:10:50;;;;;;;6.97;4.35;;;-0.50;99.90;;;;;;5067133;28;20131;-75
2022/03/05 05:13:16;;;;;;;7.20;4.22;;;-0.50;99.90;;;;;;5027232;28;20495;-76
2022/03/05 05:15:42;;;;;;;9.45;5.03;;;-0.50;99.90;;;;;;5058577;28;20040;-76
2022/03/05 05:18:08;;;;;;;5.38;4.47;;;-0.50;99.90;;;;;;5027236;28;20457;-76
2022/03/05 05:20:34;;;;;;;8.95;4.43;;;-0.50;99.90;;;;;;5030831;28;20047;-75
2022/03/05 05:22:59;;;;;;;13.57;4.85;;;-0.60;99.90;;;;;;5045656;28;20155;-76
2022/03/05 05:25:25;;;;;;;7.97;4.75;;;-0.60;99.90;;;;;;5051159;28;20041;-76
2022/03/05 05:27:51;;;;;;;8.90;5.40;;;-0.60;99.90;;;;;;5050018;28;20049;-76
2022/03/05 05:30:17;;;;;;;10.68;4.88;;;-0.60;99.90;;;;;;5051197;28;20044;-76
2022/03/05 05:32:43;;;;;;;9.38;5.15;;;-0.60;99.90;;;;;;5065154;28;20474;-76
2022/03/05 05:35:09;;;;;;;8.23;5.05;;;-0.60;99.90;;;;;;5050426;28;20462;-75
2022/03/05 05:41:18;;;;;;;10.32;4.97;;;-0.60;99.90;;;;;;5065032;23;20048;-75
2022/03/05 05:43:44;;;;;;;9.93;5.45;;;-0.60;99.90;;;;;;5010923;28;20392;-76
2022/03/05 05:46:13;;;;;;;7.38;4.45;;;-0.60;99.90;;;;;;5012552;28;20084;-75
2022/03/05 05:48:39;;;;;;;9.55;4.82;;;-0.60;99.90;;;;;;4997595;28;20046;-75
2022/03/05 05:51:05;;;;;;;8.43;4.93;;;-0.70;99.90;;;;;;5028988;28;20049;-75
2022/03/05 05:53:31;;;;;;;11.30;5.15;;;-0.60;99.90;;;;;;5025000;28;20604;-76
2022/03/05 05:55:57;;;;;;;10.50;4.18;;;-0.70;99.90;;;;;;5012034;28;20106;-76
2022/03/05 05:58:22;;;;;;;9.57;5.13;;;-0.70;99.90;;;;;;5011679;28;20063;-75
2022/03/05 06:00:49;;;;;;;12.70;4.75;;;-0.70;99.90;;;;;;5011370;28;20053;-76
2022/03/05 06:03:15;;;;;;;9.02;4.88;;;-0.70;99.90;;;;;;5011651;28;20496;-76
2022/03/05 06:05:41;;;;;;;9.45;5.22;;;-0.70;99.90;;;;;;5010394;28;20073;-75
2022/03/05 06:08:07;;;;;;;10.70;4.85;;;-0.70;99.90;;;;;;5024630;28;20045;-76
2022/03/05 06:10:32;;;;;;;10.60;5.07;;;-0.70;99.90;;;;;;5011658;28;20053;-76
2022/03/05 06:12:59;;;;;;;7.85;4.85;;;-0.70;99.90;;;;;;5008529;28;20065;-76
2022/03/05 06:15:25;;;;;;;8.63;5.00;;;-0.70;99.90;;;;;;5000774;28;20042;-76
2022/03/05 06:17:54;;;;;;;10.73;4.97;;;-0.70;99.90;;;;;;5006331;28;20046;-76
2022/03/05 06:20:22;;;;;;;8.25;4.45;;;-0.60;99.90;;;;;;4983922;28;20049;-76
2022/03/05 06:22:48;;;;;;;7.78;4.68;;;-0.60;99.90;;;;;;4990816;28;20030;-76
2022/03/05 06:25:14;;;;;;;11.27;5.22;;;-0.70;99.90;;;;;;4982221;28;20080;-76
2022/03/05 06:27:39;;;;;;;8.80;4.65;;;-0.60;99.90;;;;;;5004047;28;20046;-76
2022/03/05 06:30:06;;;;;;;12.25;5.32;;;-0.60;99.90;;;;;;5008101;28;20129;-76
2022/03/05 06:32:32;;;;;;;10.00;5.30;;;-0.60;99.90;;;;;;5002553;28;20096;-76
2022/03/05 06:34:57;;;;;;;10.65;5.07;;;-0.60;99.90;;;;;;5006922;28;20045;-76
2022/03/05 06:37:24;;;;;;;9.68;4.88;;;-0.60;99.90;;;;;;4999236;28;20045;-76
2022/03/05 06:39:50;;;;;;;9.48;5.75;;;-0.50;99.90;;;;;;5004497;28;20048;-76
2022/03/05 06:42:16;;;;;;;7.63;4.72;;;-0.50;99.90;;;;;;4997897;28;20050;-75
2022/03/05 06:44:42;;;;;;;8.52;5.13;;;-0.50;99.90;;;;;;5005902;28;20124;-76
2022/03/05 06:47:08;;;;;;;11.93;4.95;;;-0.50;99.90;;;;;;5008084;28;20042;-76
2022/03/05 06:49:33;;;;;;;8.75;4.57;;;-0.40;99.90;;;;;;5015909;28;20044;-76
2022/03/05 06:51:59;;;;;;;4.60;4.07;;;-0.40;99.90;;;;;;4994201;28;20450;-76
2022/03/05 06:54:25;;;;;;;12.70;5.65;;;-0.30;99.90;;;;;;4994134;28;20136;-76
2022/03/05 06:56:51;;;;;;;9.85;4.88;;;-0.20;99.90;;;;;;4993932;28;20475;-76
2022/03/05 06:59:17;;;;;;;10.60;5.13;;;-0.20;99.90;;;;;;5007928;28;20103;-76
2022/03/05 07:01:43;;;;;;;6.57;4.28;;;-0.10;99.90;;;;;;5004442;28;20438;-76
2022/03/05 07:04:09;;;;;;;10.40;5.13;;;-0.10;99.90;;;;;;5011077;28;20049;-76
2022/03/05 07:06:34;;;;;;;9.23;4.90;;;0.00;99.90;;;;;;4989788;28;20045;-76
2022/03/05 07:09:00;;;;;;;7.00;4.30;;;0.10;99.90;;;;;;4976497;28;20128;-76
2022/03/05 07:11:26;;;;;;;5.88;3.90;;;0.20;99.90;;;;;;5009432;28;20584;-77
2022/03/05 07:13:52;;;;;;;9.52;4.45;;;0.20;99.90;;;;;;4991218;28;20053;-77
2022/03/05 07:16:17;;;;;;;10.00;4.35;;;0.30;99.90;;;;;;5009824;28;20605;-76
2022/03/05 07:18:43;;;;;;;6.45;4.10;;;0.50;99.90;;;;;;4990400;28;20128;-76
2022/03/05 07:21:09;;;;;;;8.38;4.68;;;0.40;99.90;;;;;;4989110;28;20327;-77
2022/03/05 07:23:35;;;;;;;14.23;4.50;;;0.50;99.90;;;;;;4983263;28;20120;-76
2022/03/05 07:26:00;;;;;;;9.75;4.55;;;0.50;99.90;;;;;;4994098;28;20262;-77
2022/03/05 07:28:26;;;;;;;6.55;4.45;;;0.60;99.90;;;;;;5006553;28;20542;-77
2022/03/05 07:30:54;;;;;;;7.85;4.78;;;0.60;99.90;;;;;;5002023;28;20050;-77
2022/03/05 07:33:19;;;;;;;7.45;4.18;;;0.60;99.90;;;;;;4994061;28;20041;-77
2022/03/05 07:35:45;;;;;;;12.30;4.47;;;0.70;99.90;;;;;;5009325;28;20555;-77
2022/03/05 07:38:11;;;;;;;8.52;4.68;;;0.70;99.90;;;;;;5014223;28;20045;-76
2022/03/05 07:40:36;;;;;;;8.25;5.00;;;0.70;99.90;;;;;;5016222;28;20048;-77
2022/03/05 07:43:02;;;;;;;9.88;4.60;;;0.80;99.90;;;;;;5003183;28;20073;-77
2022/03/05 07:45:28;;;;;;;12.13;5.25;;;0.80;99.90;;;;;;5004883;28;20038;-77
2022/03/05 07:47:54;;;;;;;9.45;4.78;;;0.90;99.90;;;;;;4969821;28;20136;-77
2022/03/05 07:50:19;;;;;;;10.95;3.92;;;1.00;99.90;;;;;;4994587;28;20041;-78
2022/03/05 07:52:45;;;;;;;10.80;4.40;;;1.00;99.90;;;;;;5005233;28;20085;-77
2022/03/05 07:55:11;;;;;;;9.50;5.22;;;1.00;99.90;;;;;;5003934;28;20395;-77
2022/03/05 07:57:37;;;;;;;16.88;4.97;;;1.10;99.90;;;;;;5009683;28;20054;-77
2022/03/05 08:00:05;;;;;;;8.98;4.45;;;1.10;99.90;;;;;;5003884;28;20049;-77
2022/03/05 08:02:32;;;;;;;13.30;5.10;;;1.20;99.90;;;;;;4993810;28;20561;-78
2022/03/05 08:04:58;;;;;;;10.23;5.15;;;1.30;99.90;;;;;;4989182;28;20045;-77
2022/03/05 08:07:24;;;;;;;7.28;4.70;;;1.40;99.90;;;;;;4990765;28;20041;-78
2022/03/05 08:09:50;;;;;;;7.35;4.18;;;1.50;99.90;;;;;;5011523;28;20112;-77
2022/03/05 08:12:16;;;;;;;8.70;5.00;;;1.50;99.90;;;;;;5000133;28;20084;-78
2022/03/05 08:14:44;;;;;;;6.28;3.95;;;1.60;99.90;;;;;;5004789;28;20046;-78
2022/03/05 08:17:11;;;;;;;10.68;4.13;;;1.80;99.90;;;;;;5008683;28;20081;-77
2022/03/05 08:19:37;;;;;;;9.65;4.88;;;1.80;99.90;;;;;;5001567;28;20107;-78
2022/03/05 08:22:03;;;;;;;10.48;4.93;;;1.80;99.90;;;;;;4996908;28;20096;-78
2022/03/05 08:24:29;;;;;;;10.77;5.95;;;1.90;99.90;;;;;;5014703;28;20108;-78
2022/03/05 08:26:55;;;;;;;11.95;5.38;;;2.00;99.90;;;;;;5009962;28;20052;-78
2022/03/05 08:29:20;;;;;;;11.48;5.10;;;2.20;99.90;;;;;;5007513;28;20049;-77
2022/03/05 08:31:47;;;;;;;8.05;4.85;;;2.20;99.90;;;;;;5005843;28;20053;-78
2022/03/05 08:34:13;;;;;;;10.70;5.05;;;2.40;99.90;;;;;;5001339;28;20136;-79
2022/03/05 08:36:39;;;;;;;8.60;4.95;;;2.40;99.90;;;;;;4989646;28;20132;-78
2022/03/05 08:39:05;;;;;;;10.02;6.10;;;2.40;99.90;;;;;;5006282;28;20038;-78
2022/03/05 08:41:30;;;;;;;9.95;5.85;;;2.50;99.90;;;;;;4989821;28;20137;-77
2022/03/05 08:43:56;;;;;;;7.97;5.28;;;2.50;99.90;;;;;;5000232;28;20057;-78
2022/03/05 08:46:22;;;;;;;11.40;5.60;;;2.70;99.90;;;;;;5026022;28;20044;-78
2022/03/05 08:48:48;;;;;;;10.63;5.57;;;2.80;99.90;;;;;;5026966;28;20075;-78
2022/03/05 08:51:13;;;;;;;8.25;5.00;;;2.90;99.90;;;;;;5025279;28;20423;-78
2022/03/05 08:53:39;;;;;;;8.43;5.55;;;2.90;99.90;;;;;;5025614;28;20052;-79
2022/03/05 08:56:05;;;;;;;10.45;5.63;;;2.90;99.90;;;;;;5010246;28;20619;-79
2022/03/05 08:58:31;;;;;;;14.73;6.60;;;3.00;99.90;;;;;;5026429;28;20044;-79
2022/03/05 09:01:01;;;;;;;11.60;6.15;;;3.10;99.90;;;;;;5006758;28;20555;-79
2022/03/05 09:03:27;;;;;;;7.95;5.70;;;3.10;99.90;;;;;;5010960;28;20096;-79
2022/03/05 09:05:53;;;;;;;8.73;3.88;;;3.10;99.90;;;;;;5030564;28;20043;-78
2022/03/05 09:08:19;;;;;;;9.13;5.97;;;3.20;99.90;;;;;;5013742;28;20048;-78
2022/03/05 09:10:46;;;;;;;10.13;6.60;;;3.30;99.90;;;;;;5010875;28;20077;-78
2022/03/05 09:13:12;;;;;;;11.85;5.95;;;3.40;99.90;;;;;;5006165;28;20041;-79
2022/03/05 09:15:38;;;;;;;15.57;7.50;;;3.50;99.90;;;;;;5008184;28;20069;-79
2022/03/05 09:18:04;;;;;;;10.50;6.78;;;3.50;99.90;;;;;;5007824;28;20049;-79
2022/03/05 09:20:31;;;;;;;10.57;5.03;;;3.70;99.90;;;;;;5000214;28;20054;-79
2022/03/05 09:22:58;;;;;;;12.73;5.20;;;3.70;99.90;;;;;;5019792;28;20076;-79
2022/03/05 09:25:24;;;;;;;15.80;7.30;;;3.70;99.90;;;;;;4995065;28;20045;-78
2022/03/05 09:27:50;;;;;;;9.23;4.75;;;3.70;99.90;;;;;;5027571;28;20056;-79
2022/03/05 09:30:16;;;;;;;5.57;3.00;;;3.80;99.90;;;;;;5007274;28;20099;-78
2022/03/05 09:32:42;;;;;;;11.85;6.60;;;3.70;99.90;;;;;;4991331;28;20049;-78
2022/03/05 09:35:08;;;;;;;14.90;7.65;;;3.80;99.90;;;;;;5007691;28;20045;-78
2022/03/05 09:37:34;;;;;;;15.55;7.18;;;3.90;99.90;;;;;;4967356;28;20057;-78
2022/03/05 09:40:01;;;;;;;5.97;4.45;;;4.10;99.90;;;;;;5006478;28;20492;-78
2022/03/05 09:42:27;;;;;;;12.70;5.55;;;4.20;99.90;;;;;;5024358;28;20189;-77
2022/03/05 09:44:53;;;;;;;9.05;6.97;;;4.10;99.90;;;;;;5016008;28;20053;-78
2022/03/05 09:47:20;;;;;;;6.30;3.97;;;4.20;99.90;;;;;;4970336;28;20519;-78
2022/03/05 09:49:46;;;;;;;12.60;7.03;;;4.30;99.90;;;;;;5020977;28;20076;-78
2022/03/05 09:52:12;;;;;;;8.80;5.28;;;4.30;99.90;;;;;;4999622;28;20465;-77
2022/03/05 09:54:38;;;;;;;3.22;2.00;;;4.40;99.90;;;;;;4998530;28;20037;-78
2022/03/05 09:57:12;;;;;;;10.70;6.82;;;4.40;99.90;;;;;;5024988;28;20037;-77
2022/03/05 09:59:38;;;;;;;11.90;6.47;;;4.30;99.90;;;;;;5019958;28;20045;-78
2022/03/05 10:02:05;;;;;;;10.57;6.97;;;4.40;99.90;;;;;;5016897;28;20087;-78
2022/03/05 10:04:32;;;;;;;6.38;5.38;;;4.60;99.90;;;;;;4998230;28;20048;-77
2022/03/05 10:07:16;;;;;;;14.07;7.07;;;4.70;99.90;;;;;;5017679;28;20053;-78
2022/03/05 10:09:47;;;;;;;6.75;4.45;;;4.70;99.90;;;;;;5015732;28;20061;-77
2022/03/05 10:12:33;;;;;;;12.63;6.88;;;4.60;99.00;;;;;;5025443;28;20057;-77
2022/03/05 10:15:17;;;;;;;6.00;4.07;;;4.70;99.90;;;;;;5032712;28;20045;-78
2022/03/05 10:17:59;;;;;;;8.25;6.28;;;4.70;99.10;;;;;;5006570;28;20085;-77
2022/03/05 10:20:30;;;;;;;5.10;3.53;;;4.70;99.00;;;;;;4998501;28;20077;-76
2022/03/05 10:23:08;;;;;;;12.43;4.97;;;4.80;97.40;;;;;;5022519;28;20084;-76
2022/03/05 10:25:39;;;;;;;8.27;5.75;;;4.90;99.20;;;;;;5006927;28;20496;-77
2022/03/05 10:28:06;;;;;;;8.30;6.28;;;5.00;98.30;;;;;;5005449;28;20046;-77
2022/03/05 10:30:34;;;;;;;9.88;6.70;;;5.20;99.90;;;;;;5001252;28;20050;-78
2022/03/05 10:33:00;;;;;;;10.07;6.82;;;5.40;96.50;;;;;;4992941;28;20538;-78
2022/03/05 10:35:29;;;;;;;12.23;6.03;;;5.30;98.40;;;;;;5016424;28;20605;-77
2022/03/05 10:37:55;;;;;;;10.43;5.68;;;5.50;93.60;;;;;;5012350;28;20049;-77
2022/03/05 10:40:54;;;;;;;8.38;6.60;;;5.40;95.80;;;;;;5005933;28;20049;-77
2022/03/05 10:43:20;;;;;;;8.38;5.80;;;5.40;96.70;;;;;;4987600;28;20050;-77
2022/03/05 10:45:54;;;;;;;13.43;5.82;;;5.50;92.70;;;;;;5000421;28;20072;-78
2022/03/05 10:48:31;;;;;;;10.57;6.72;;;5.50;99.50;;;;;;5011992;28;20037;-77
2022/03/05 10:51:10;;;;;;;3.90;2.97;;;5.60;94.20;;;;;;5017727;28;20312;-79
2022/03/05 10:53:40;;;;;;;4.63;3.83;;;5.50;91.70;;;;;;4993678;28;20038;-76
2022/03/05 10:56:26;;;;;;;16.63;6.95;;;5.40;92.50;;;;;;4991912;28;20041;-78
2022/03/05 10:59:10;;;;;;;7.78;5.65;;;5.50;94.60;;;;;;5008905;28;20084;-77
2022/03/05 11:01:40;;;;;;;9.70;6.43;;;5.40;91.50;;;;;;5009223;28;20045;-78
2022/03/05 11:04:08;;;;;;;8.48;6.03;;;5.60;94.50;;;;;;5005092;28;20108;-77
2022/03/05 11:06:39;;;;;;;9.73;5.80;;;5.60;91.80;;;;;;4987294;28;20050;-77
2022/03/05 11:09:06;;;;;;;8.43;6.10;;;5.60;93.60;;;;;;5028162;28;20466;-78
2022/03/05 11:11:37;;;;;;;6.70;2.88;;;5.70;91.80;;;;;;5006146;28;20053;-77
2022/03/05 11:14:04;;;;;;;8.02;4.78;;;5.80;92.70;;;;;;5014974;28;20095;-77
2022/03/05 11:16:31;;;;;;;8.25;5.55;;;5.70;91.10;;;;;;4991800;28;20056;-78
2022/03/05 11:18:57;;;;;;;7.78;5.68;;;5.60;91.10;;;;;;5010906;28;20049;-77
2022/03/05 11:21:25;;;;;;;8.70;6.70;;;5.80;95.20;;;;;;5015826;28;20045;-76
2022/03/05 11:23:51;;;;;;;9.38;5.60;;;5.70;93.40;;;;;;5017256;28;20049;-78
2022/03/05 11:26:17;;;;;;;10.18;6.05;;;5.80;92.70;;;;;;5014217;28;20061;-77
2022/03/05 11:28:49;;;;;;;10.27;6.68;;;5.90;93.50;;;;;;5010623;28;20045;-78
2022/03/05 11:31:20;;;;;;;7.20;5.90;;;6.10;94.00;;;;;;5009614;28;20037;-77
2022/03/05 11:33:47;;;;;;;10.43;6.28;;;6.20;92.90;;;;;;5006510;28;20129;-77
2022/03/05 11:36:27;;;;;;;9.95;6.05;;;6.30;93.50;;;;;;5006957;28;20124;-77
2022/03/05 11:39:36;;;;;;;10.23;7.13;;;6.20;92.00;;;;;;5011596;28;20041;-78
2022/03/05 11:42:07;;;;;;;7.13;5.25;;;6.30;92.00;;;;;;4989118;28;20534;-77
2022/03/05 11:44:44;;;;;;;12.52;7.35;;;6.10;88.50;;;;;;5022420;28;20575;-77
2022/03/05 11:47:19;;;;;;;9.35;5.85;;;6.10;91.40;;;;;;5020024;28;20044;-77
2022/03/05 11:49:59;;;;;;;10.80;5.80;;;6.00;92.00;;;;;;5022701;28;20068;-77
2022/03/05 11:52:37;;;;;;;13.93;7.43;;;6.00;93.30;;;;;;5020574;28;20131;-77
2022/03/05 11:55:16;;;;;;;10.30;6.80;;;6.00;91.90;;;;;;5003237;28;20076;-78
2022/03/05 11:57:52;;;;;;;9.38;7.03;;;6.20;92.70;;;;;;5002968;28;20133;-77
2022/03/05 12:00:25;;;;;;;11.23;6.40;;;6.20;91.00;;;;;;4998285;28;20041;-77
2022/03/05 12:02:54;;;;;;;12.70;7.82;;;6.10;89.40;;;;;;5015947;28;20049;-77
2022/03/05 12:05:38;;;;;;;11.77;7.00;;;6.20;96.40;;;;;;5007092;28;20128;-78
2022/03/05 12:08:08;;;;;;;8.52;4.88;;;6.40;91.60;;;;;;5023441;28;20052;-77
2022/03/05 12:10:35;;;;;;;14.10;7.22;;;6.40;92.10;;;;;;5009153;28;20080;-78
2022/03/05 12:13:03;;;;;;;10.43;6.60;;;6.50;93.20;;;;;;5004722;28;20076;-76
2022/03/05 12:15:56;;;;;;;14.63;7.22;;;6.80;93.00;;;;;;5001237;28;20049;-78
2022/03/05 12:18:23;;;;;;;12.25;4.75;;;6.90;91.20;;;;;;4996400;28;20061;-77
2022/03/05 12:20:48;;;;;;;7.20;4.60;;;6.70;87.80;;;;;;5005646;28;20057;-77
2022/03/05 12:23:19;;;;;;;10.18;7.40;;;6.60;90.90;;;;;;4987848;28;20107;-78
2022/03/05 12:25:48;;;;;;;11.38;7.35;;;6.50;90.80;;;;;;4998889;28;20053;-78
2022/03/05 12:28:20;;;;;;;8.77;6.75;;;6.70;90.10;;;;;;4993550;28;20053;-78
2022/03/05 12:30:47;;;;;;;10.77;6.55;;;6.70;92.20;;;;;;5011290;28;20041;-78
2022/03/05 12:33:16;;;;;;;13.85;6.53;;;6.80;92.00;;;;;;5009558;28;20553;-77
2022/03/05 12:35:44;;;;;;;8.52;6.63;;;6.80;91.80;;;;;;5014283;28;20046;-77
2022/03/05 12:38:15;;;;;;;10.55;7.63;;;6.90;91.70;;;;;;5006566;28;20048;-77
2022/03/05 12:40:40;;;;;;;10.02;6.70;;;6.90;91.80;;;;;;5012081;28;20443;-78
2022/03/05 12:43:07;;;;;;;10.43;6.85;;;7.10;91.40;;;;;;5008013;28;20048;-78
2022/03/05 12:45:38;;;;;;;9.25;6.80;;;7.10;83.70;;;;;;5027356;28;20124;-78
2022/03/05 12:48:15;;;;;;;9.57;6.47;;;7.00;91.50;;;;;;5009545;28;20303;-78
2022/03/05 12:50:44;;;;;;;9.35;6.63;;;7.20;94.30;;;;;;5026200;28;20511;-78
2022/03/05 12:53:21;;;;;;;9.85;6.38;;;7.30;92.20;;;;;;5021282;28;20114;-77
2022/03/05 12:55:55;;;;;;;14.40;6.85;;;7.20;90.80;;;;;;5010284;28;20052;-78
2022/03/05 12:58:35;;;;;;;7.70;5.85;;;7.20;90.70;;;;;;5025401;28;20537;-77